Time;durP1;ratioP1;P1;durP2;ratioP2;P2;SDS_P1;SDS_P2;PMS_P1;PMS_P2;Temp;Humidity;BMP_temperature;BMP_pressure;BME280_temperature;BME280_humidity;BME280_pressure;Samples;Min_cycle;Max_cycle;Signal;HPM_P1;HPM_P2
2023/09/07 00:01:52;;;;;;;3.80;2.33;;;;;;;17.01;74.04;150336.25;5003889;28;20256;-56
2023/09/07 00:04:21;;;;;;;4.20;2.43;;;;;;;16.91;75.88;150313.75;5006294;28;20323;-57
2023/09/07 00:06:49;;;;;;;7.57;2.67;;;;;;;16.94;78.12;150321.25;5003577;28;20216;-57
2023/09/07 00:09:18;;;;;;;7.07;2.60;;;;;;;16.79;78.55;150283.75;5006799;28;20236;-57
2023/09/07 00:11:44;;;;;;;3.57;2.27;;;;;;;16.95;76.79;150322.47;5002473;28;20260;-55
2023/09/07 00:14:11;;;;;;;3.47;2.47;;;;;;;16.94;76.74;150319.97;5007168;28;20241;-58
2023/09/07 00:16:38;;;;;;;5.10;2.33;;;;;;;16.80;76.95;150286.25;5006528;28;20623;-55
2023/09/07 00:19:06;;;;;;;4.30;2.30;;;;;;;16.87;79.81;150303.75;5003262;28;20228;-57
2023/09/07 00:21:34;;;;;;;3.63;2.07;;;;;;;16.84;76.44;150296.25;5006666;28;20240;-57
2023/09/07 00:24:07;;;;;;;3.40;2.40;;;;;;;17.14;72.94;150367.56;5004454;28;20236;-57
2023/09/07 00:26:33;;;;;;;4.97;2.20;;;;;;;17.36;71.73;150421.31;5006645;28;20320;-58
2023/09/07 00:29:03;;;;;;;2.30;1.80;;;;;;;17.70;68.68;150505.09;5004027;28;20237;-57
2023/09/07 00:31:30;;;;;;;3.57;2.07;;;;;;;18.10;65.63;150600.25;5005766;28;20256;-58
2023/09/07 00:33:57;;;;;;;3.93;2.20;;;;;;;17.89;67.92;150548.91;5000469;28;20276;-57
2023/09/07 00:36:23;;;;;;;3.30;2.33;;;;;;;18.21;68.49;150626.50;4988428;28;20237;-56
2023/09/07 00:38:51;;;;;;;2.60;2.10;;;;;;;18.23;66.94;150631.50;4985493;28;20233;-58
2023/09/07 00:41:18;;;;;;;2.93;2.17;;;;;;;17.99;66.25;150575.22;4987830;28;20225;-58
2023/09/07 00:43:44;;;;;;;3.97;2.00;;;;;;;17.82;70.12;150532.63;4985383;28;20612;-56
2023/09/07 00:46:11;;;;;;;3.60;2.30;;;;;;;17.73;69.69;150511.38;5004974;28;20777;-55
2023/09/07 00:48:39;;;;;;;3.67;2.20;;;;;;;17.56;71.92;150470.06;4979794;28;20287;-57
2023/09/07 00:51:06;;;;;;;2.73;2.10;;;;;;;17.39;73.71;150430.09;4985177;28;20233;-55
2023/09/07 00:53:32;;;;;;;4.23;2.10;;;;;;;17.23;74.89;150391.28;4988029;28;20321;-57
2023/09/07 00:56:02;;;;;;;2.33;2.13;;;;;;;17.09;74.80;150357.53;5003280;28;20617;-57
2023/09/07 00:58:29;;;;;;;6.57;2.37;;;;;;;16.96;76.12;150326.25;4995214;28;20234;-56
2023/09/07 01:00:56;;;;;;;3.23;2.30;;;;;;;16.87;77.34;150303.75;4974478;28;20302;-58
2023/09/07 01:03:23;;;;;;;4.10;2.20;;;;;;;16.73;79.44;150268.75;4987643;28;20231;-57
2023/09/07 01:05:56;;;;;;;4.43;2.53;;;;;;;16.75;79.96;150273.75;5001264;28;20223;-57
2023/09/07 01:08:27;;;;;;;3.73;2.40;;;;;;;16.84;77.85;150296.25;4976815;28;20296;-58
2023/09/07 01:10:54;;;;;;;7.60;2.30;;;;;;;16.82;78.73;150292.47;4971510;28;20217;-54
2023/09/07 01:13:22;;;;;;;2.80;2.27;;;;;;;16.74;78.74;150271.22;5003242;28;20334;-57
2023/09/07 01:15:49;;;;;;;4.60;2.40;;;;;;;16.65;78.46;150249.97;4985637;28;20233;-57
2023/09/07 01:18:17;;;;;;;5.07;3.00;;;;;;;16.61;80.06;150241.22;4987928;28;20231;-57
2023/09/07 01:20:46;;;;;;;3.00;2.67;;;;;;;16.52;80.85;150219.94;4984748;28;20225;-58
2023/09/07 01:23:15;;;;;;;4.83;3.27;;;;;;;16.41;80.82;150191.22;4979668;28;20226;-58
2023/09/07 01:25:41;;;;;;;3.50;2.87;;;;;;;16.34;80.74;150175.00;5003084;28;20224;-58
2023/09/07 01:28:08;;;;;;;2.97;2.57;;;;;;;16.23;80.67;150148.72;4986787;28;20588;-58
2023/09/07 01:30:36;;;;;;;4.33;2.47;;;;;;;16.15;81.81;150130.00;4993680;28;20809;-58
2023/09/07 01:33:03;;;;;;;4.27;2.70;;;;;;;16.14;82.68;150126.22;4984484;28;20240;-57
2023/09/07 01:35:32;;;;;;;3.47;2.63;;;;;;;16.08;83.73;150113.72;4986281;28;20259;-57
2023/09/07 01:37:59;;;;;;;4.63;2.90;;;;;;;16.04;83.57;150103.72;5000420;28;20281;-57
2023/09/07 01:40:27;;;;;;;5.40;2.80;;;;;;;15.97;83.27;150086.22;4986384;28;20229;-57
2023/09/07 01:42:53;;;;;;;2.97;2.63;;;;;;;16.05;83.77;150105.00;4999965;28;20683;-57
2023/09/07 01:45:20;;;;;;;5.40;2.60;;;;;;;16.05;83.11;150105.00;5004292;28;20318;-57
2023/09/07 01:47:46;;;;;;;4.00;2.60;;;;;;;15.99;83.37;150090.00;4975407;28;20223;-57
2023/09/07 01:50:14;;;;;;;3.83;2.97;;;;;;;15.96;84.87;150082.50;4987357;28;20236;-57
2023/09/07 01:52:41;;;;;;;2.97;2.33;;;;;;;15.93;85.57;150076.22;4973562;28;20252;-60
2023/09/07 01:55:08;;;;;;;9.27;3.03;;;;;;;15.91;87.15;150071.22;4976989;28;20243;-57
2023/09/07 01:57:36;;;;;;;4.50;2.87;;;;;;;16.19;83.17;150138.72;4991169;28;20236;-57
2023/09/07 02:00:05;;;;;;;3.30;2.50;;;;;;;16.21;84.19;150145.00;5000337;28;20242;-57
2023/09/07 02:02:40;;;;;;;6.63;2.80;;;;;;;16.09;85.55;150116.22;5004278;28;20234;-57
2023/09/07 02:05:07;;;;;;;3.17;2.83;;;;;;;16.17;83.41;150135.00;4973928;28;20265;-57
2023/09/07 02:07:34;;;;;;;3.90;3.13;;;;;;;16.18;83.18;150136.22;5003982;28;20233;-56
2023/09/07 02:10:01;;;;;;;5.00;2.90;;;;;;;16.13;85.87;150123.72;5002090;28;23358;-57
2023/09/07 02:12:27;;;;;;;3.60;2.53;;;;;;;16.11;86.72;150118.72;4986241;28;20245;-57
2023/09/07 02:14:56;;;;;;;5.50;2.70;;;;;;;15.93;87.41;150077.50;4972583;28;20228;-57
2023/09/07 02:17:22;;;;;;;4.60;2.97;;;;;;;15.80;87.15;150044.97;4974378;28;20247;-57
2023/09/07 02:19:50;;;;;;;3.83;3.03;;;;;;;15.75;87.60;150033.72;4983841;28;20227;-57
2023/09/07 02:22:16;;;;;;;3.00;2.53;;;;;;;15.74;87.25;150029.97;4977803;28;20234;-57
2023/09/07 02:24:43;;;;;;;5.13;3.43;;;;;;;15.89;88.03;150067.50;5001005;28;20213;-57
2023/09/07 02:27:09;;;;;;;4.00;3.07;;;;;;;15.79;87.74;150043.72;4979518;28;20237;-57
2023/09/07 02:29:36;;;;;;;4.43;2.70;;;;;;;15.74;88.37;150029.97;4987117;28;20227;-57
2023/09/07 02:32:06;;;;;;;3.90;3.00;;;;;;;15.73;88.55;150027.47;4983233;28;20240;-57
2023/09/07 02:34:36;;;;;;;4.33;2.70;;;;;;;15.81;89.22;150046.22;4976120;28;20581;-57
2023/09/07 02:37:03;;;;;;;3.50;2.80;;;;;;;15.86;89.32;150059.94;4975234;28;20291;-56
2023/09/07 02:39:30;;;;;;;5.07;2.97;;;;;;;16.14;86.15;150126.22;5002648;28;20236;-57
2023/09/07 02:41:56;;;;;;;3.17;2.63;;;;;;;16.32;84.29;150170.00;4973728;28;20762;-57
2023/09/07 02:44:23;;;;;;;5.57;2.90;;;;;;;16.41;84.10;150191.22;4986185;28;20321;-57
2023/09/07 02:46:50;;;;;;;4.67;3.07;;;;;;;16.68;82.15;150257.47;4984313;28;20220;-57
2023/09/07 02:49:18;;;;;;;5.70;3.10;;;;;;;16.47;84.89;150207.44;4986498;28;20248;-57
2023/09/07 02:51:44;;;;;;;4.20;3.00;;;;;;;16.39;85.30;150187.50;4983252;28;20568;-56
2023/09/07 02:54:11;;;;;;;4.17;3.27;;;;;;;16.36;86.25;150181.22;4977186;28;20315;-57
2023/09/07 02:56:38;;;;;;;4.13;3.33;;;;;;;16.30;87.73;150165.00;4986176;28;20701;-55
2023/09/07 02:59:06;;;;;;;3.47;2.97;;;;;;;16.25;87.37;150153.72;4984113;28;20306;-57
2023/09/07 03:01:34;;;;;;;5.37;2.80;;;;;;;16.20;87.99;150141.22;4975384;28;20674;-57
2023/09/07 03:04:07;;;;;;;6.80;3.10;;;;;;;16.17;89.55;150135.00;4983616;28;20707;-57
2023/09/07 03:06:35;;;;;;;4.30;3.10;;;;;;;16.20;90.18;150142.50;4977845;28;20232;-57
2023/09/07 03:09:08;;;;;;;3.20;2.73;;;;;;;16.21;90.25;150145.00;4982494;28;20220;-57
2023/09/07 03:11:37;;;;;;;4.90;3.20;;;;;;;16.38;86.50;150185.00;4979646;28;20850;-57
2023/09/07 03:14:07;;;;;;;3.67;3.03;;;;;;;16.47;86.53;150207.44;4983570;28;20256;-57
2023/09/07 03:16:34;;;;;;;3.40;2.97;;;;;;;16.66;84.69;150253.72;4986802;28;20315;-57
2023/09/07 03:19:07;;;;;;;3.97;3.20;;;;;;;17.56;78.16;150471.34;4982070;28;20685;-56
2023/09/07 03:21:34;;;;;;;4.27;3.07;;;;;;;18.11;75.42;150602.75;5001735;28;20241;-58
2023/09/07 03:24:08;;;;;;;5.17;3.07;;;;;;;18.19;74.18;150622.78;4983477;28;20234;-57
2023/09/07 03:26:35;;;;;;;4.17;2.70;;;;;;;18.31;73.55;150650.31;4989875;28;20705;-57
2023/09/07 03:29:06;;;;;;;5.07;2.93;;;;;;;18.47;74.23;150690.34;4983981;28;20240;-57
2023/09/07 03:31:33;;;;;;;3.73;3.10;;;;;;;18.35;74.40;150660.31;5224156;23;20694;-54
2023/09/07 03:34:05;;;;;;;3.27;2.77;;;;;;;18.39;74.21;150671.56;5001866;28;20245;-57
2023/09/07 03:36:31;;;;;;;3.27;2.97;;;;;;;18.72;71.45;150750.38;4980194;28;20282;-57
2023/09/07 03:38:58;;;;;;;4.93;2.90;;;;;;;18.50;73.76;150696.59;5003675;28;20243;-57
2023/09/07 03:41:30;;;;;;;5.73;3.17;;;;;;;18.44;74.66;150682.84;4984675;28;20234;-56
2023/09/07 03:43:57;;;;;;;5.70;3.30;;;;;;;18.45;75.34;150685.34;4984879;28;20226;-57
2023/09/07 03:46:24;;;;;;;3.93;3.17;;;;;;;18.39;75.69;150671.56;4970967;28;21170;-57
2023/09/07 03:48:51;;;;;;;4.97;3.40;;;;;;;18.31;76.22;150651.53;4978873;28;20307;-57
2023/09/07 03:51:18;;;;;;;3.70;3.03;;;;;;;18.46;75.64;150686.56;4977928;28;20244;-57
2023/09/07 03:53:45;;;;;;;4.93;3.30;;;;;;;18.57;74.72;150714.13;4976191;28;21126;-57
2023/09/07 03:56:12;;;;;;;3.63;3.30;;;;;;;18.64;73.83;150731.63;4983968;28;20250;-57
2023/09/07 03:58:40;;;;;;;6.77;3.13;;;;;;;18.87;73.44;150786.72;4978107;28;20236;-57
2023/09/07 04:01:07;;;;;;;5.20;3.30;;;;;;;18.76;74.10;150759.19;4966912;28;20337;-57
2023/09/07 04:03:34;;;;;;;5.57;3.53;;;;;;;19.19;71.68;150864.34;4985297;28;20242;-57
2023/09/07 04:06:00;;;;;;;4.33;3.13;;;;;;;19.63;69.61;150970.78;4983680;28;20667;-57
2023/09/07 04:08:28;;;;;;;4.57;2.97;;;;;;;19.49;70.19;150936.97;4983086;28;20222;-57
2023/09/07 04:10:55;;;;;;;4.27;3.23;;;;;;;19.60;69.34;150964.53;4972358;28;20231;-58
2023/09/07 04:13:21;;;;;;;3.80;3.40;;;;;;;19.51;70.17;150942.00;4975265;28;20638;-57
2023/09/07 04:15:49;;;;;;;6.50;3.57;;;;;;;19.70;69.21;150988.31;4971298;28;20220;-57
2023/09/07 04:18:17;;;;;;;4.43;3.50;;;;;;;19.70;69.63;150988.31;4973101;28;20329;-56
2023/09/07 04:20:44;;;;;;;5.30;3.90;;;;;;;19.73;69.68;150994.59;4968400;28;20361;-55
2023/09/07 04:23:12;;;;;;;5.37;3.27;;;;;;;19.58;70.45;150958.28;4974779;28;21051;-57
2023/09/07 04:25:39;;;;;;;7.60;3.30;;;;;;;19.57;70.42;150957.03;4978073;28;20287;-57
2023/09/07 04:28:06;;;;;;;5.67;3.57;;;;;;;19.66;70.64;150977.06;4972410;28;20228;-58
2023/09/07 04:30:33;;;;;;;4.57;3.70;;;;;;;19.94;69.70;151044.75;4970379;28;20667;-57
2023/09/07 04:33:01;;;;;;;5.83;3.73;;;;;;;19.82;69.98;151017.13;4986428;28;20240;-57
2023/09/07 04:35:30;;;;;;;5.27;4.03;;;;;;;19.95;69.53;151048.47;4971726;28;20239;-57
2023/09/07 04:37:57;;;;;;;6.17;3.40;;;;;;;19.94;69.66;151044.75;4960852;28;20233;-58
2023/09/07 04:40:24;;;;;;;6.30;3.87;;;;;;;19.83;70.56;151018.38;4975557;28;20658;-56
2023/09/07 04:42:51;;;;;;;4.27;3.73;;;;;;;19.51;72.41;150940.75;4970969;28;20231;-58
2023/09/07 04:45:18;;;;;;;5.03;4.23;;;;;;;19.10;73.73;150843.09;4970340;28;20307;-57
2023/09/07 04:47:45;;;;;;;5.60;4.73;;;;;;;18.75;76.20;150757.91;4971621;28;20636;-57
2023/09/07 04:50:14;;;;;;;9.53;4.90;;;;;;;18.19;78.89;150622.78;4973174;28;20240;-57
2023/09/07 04:52:41;;;;;;;7.53;4.90;;;;;;;17.74;80.68;150513.88;4960012;28;20780;-58
2023/09/07 04:55:08;;;;;;;6.47;5.10;;;;;;;17.52;81.77;150461.34;4967650;28;20830;-57
2023/09/07 04:57:37;;;;;;;5.23;4.53;;;;;;;17.16;82.82;150373.78;4958269;28;20872;-57
2023/09/07 05:00:04;;;;;;;6.90;4.60;;;;;;;17.06;83.06;150350.03;4960360;28;20231;-57
2023/09/07 05:02:31;;;;;;;9.87;4.17;;;;;;;16.92;83.82;150316.25;4976189;28;20619;-58
2023/09/07 05:04:58;;;;;;;9.10;4.10;;;;;;;16.78;85.09;150282.47;4961245;28;20761;-57
2023/09/07 05:07:26;;;;;;;10.00;4.20;;;;;;;16.59;87.39;150234.94;4975078;28;20242;-57
2023/09/07 05:09:53;;;;;;;6.30;4.43;;;;;;;16.50;87.43;150213.72;4956229;28;20691;-57
2023/09/07 05:12:20;;;;;;;5.03;4.10;;;;;;;16.40;88.41;150188.72;4977195;28;20224;-57
2023/09/07 05:14:47;;;;;;;9.57;4.03;;;;;;;16.29;89.92;150163.72;4982322;28;20674;-58
2023/09/07 05:17:13;;;;;;;5.63;3.93;;;;;;;16.18;91.52;150136.22;4973418;28;20228;-56
2023/09/07 05:19:40;;;;;;;6.57;4.20;;;;;;;16.08;91.91;150112.50;4969608;28;20218;-57
2023/09/07 05:22:07;;;;;;;5.60;3.93;;;;;;;16.06;92.91;150108.72;4965500;28;20721;-57
2023/09/07 05:24:35;;;;;;;7.77;4.30;;;;;;;16.01;92.71;150095.00;4973477;28;20234;-57
2023/09/07 05:27:03;;;;;;;11.33;4.20;;;;;;;15.95;93.31;150081.22;4955809;28;20234;-55
2023/09/07 05:29:29;;;;;;;7.83;4.30;;;;;;;15.96;94.45;150082.50;4968388;28;20246;-57
2023/09/07 05:31:56;;;;;;;6.30;3.97;;;;;;;15.88;95.73;150065.00;4986657;28;20221;-54
2023/09/07 05:34:24;;;;;;;6.67;4.23;;;;;;;15.91;95.22;150071.22;4971959;28;20229;-57
2023/09/07 05:36:51;;;;;;;12.93;5.20;;;;;;;15.81;96.38;150046.22;4976055;28;20223;-54
2023/09/07 05:39:17;;;;;;;6.53;4.47;;;;;;;15.79;97.46;150042.44;4972269;28;20282;-57
2023/09/07 05:41:46;;;;;;;6.53;4.60;;;;;;;15.78;98.52;150039.94;4967202;28;20289;-57
2023/09/07 05:44:12;;;;;;;5.90;4.03;;;;;;;15.88;97.17;150063.78;4975670;28;20291;-57
2023/09/07 05:46:39;;;;;;;8.40;4.20;;;;;;;15.85;98.64;150057.44;4976307;28;20237;-57
2023/09/07 05:49:07;;;;;;;7.07;4.20;;;;;;;15.84;99.26;150053.72;4969829;28;20653;-57
2023/09/07 05:51:33;;;;;;;5.53;4.20;;;;;;;15.86;100.00;150059.94;4971549;28;20229;-57
2023/09/07 05:54:04;;;;;;;8.20;4.80;;;;;;;15.85;100.00;150057.44;4970740;28;20236;-56
2023/09/07 05:56:33;;;;;;;6.43;4.53;;;;;;;15.87;100.00;150061.28;4974598;28;20231;-57
2023/09/07 05:59:01;;;;;;;5.33;4.30;;;;;;;15.82;100.00;150049.94;4984505;28;20255;-56
2023/09/07 06:01:27;;;;;;;5.37;3.97;;;;;;;15.83;100.00;150051.22;4969517;28;20255;-56
2023/09/07 06:03:55;;;;;;;5.83;3.90;;;;;;;15.89;100.00;150067.50;4981338;28;20244;-57
2023/09/07 06:06:21;;;;;;;7.37;4.50;;;;;;;15.88;100.00;150063.78;4973728;28;20221;-57
2023/09/07 06:08:48;;;;;;;6.50;4.57;;;;;;;15.88;100.00;150063.78;4981096;28;20304;-58
2023/09/07 06:11:15;;;;;;;5.67;4.47;;;;;;;15.87;100.00;150061.28;4970282;28;20231;-55
2023/09/07 06:13:41;;;;;;;12.17;4.77;;;;;;;15.83;100.00;150051.22;4983035;28;20232;-57
2023/09/07 06:16:10;;;;;;;6.97;5.13;;;;;;;15.82;100.00;150049.94;4967763;28;20236;-57
2023/09/07 06:18:36;;;;;;;8.43;5.10;;;;;;;15.74;100.00;150031.22;4979555;28;20258;-57
2023/09/07 06:21:04;;;;;;;7.40;5.00;;;;;;;15.71;100.00;150023.72;4976112;28;20236;-58
2023/09/07 06:23:31;;;;;;;7.37;4.90;;;;;;;15.62;100.00;150001.25;4966776;28;20232;-57
2023/09/07 06:25:58;;;;;;;7.97;5.63;;;;;;;15.59;100.00;149993.75;4964539;28;20778;-57
2023/09/07 06:28:24;;;;;;;7.57;5.20;;;;;;;15.56;100.00;149987.47;4966157;28;20237;-57
2023/09/07 06:30:51;;;;;;;6.47;5.70;;;;;;;15.52;100.00;149976.25;4966885;28;20237;-56
2023/09/07 06:33:20;;;;;;;11.30;6.17;;;;;;;15.50;100.00;149972.47;4976117;28;20237;-57
2023/09/07 06:35:49;;;;;;;11.77;5.80;;;;;;;15.48;100.00;149967.47;4955699;28;20318;-56
2023/09/07 06:38:15;;;;;;;10.67;6.00;;;;;;;15.53;100.00;149979.97;4983099;28;20296;-57
2023/09/07 06:40:48;;;;;;;9.37;5.83;;;;;;;15.44;100.00;149957.47;4963774;28;20223;-55
2023/09/07 06:43:16;;;;;;;15.20;6.43;;;;;;;15.46;100.00;149962.47;4983213;28;20290;-56
2023/09/07 06:45:43;;;;;;;11.50;5.63;;;;;;;15.51;100.00;149974.97;4970692;28;20241;-57
2023/09/07 06:48:09;;;;;;;5.83;4.93;;;;;;;15.54;100.00;149982.47;4958709;28;20241;-55
2023/09/07 06:50:37;;;;;;;10.53;5.23;;;;;;;15.61;100.00;149998.75;4979297;28;20242;-56
2023/09/07 06:53:04;;;;;;;8.40;5.93;;;;;;;15.70;100.00;150019.97;4974835;28;20711;-55
2023/09/07 06:55:31;;;;;;;7.73;5.50;;;;;;;15.82;100.00;150049.94;4969009;28;20694;-57
2023/09/07 06:58:00;;;;;;;7.43;4.90;;;;;;;15.95;100.00;150081.22;4983001;28;20711;-56
2023/09/07 07:00:27;;;;;;;10.00;5.17;;;;;;;16.04;100.00;150102.50;4969122;28;20235;-54
2023/09/07 07:02:54;;;;;;;11.83;5.50;;;;;;;16.14;100.00;150126.22;4955431;28;20676;-56
2023/09/07 07:05:22;;;;;;;6.40;4.63;;;;;;;16.27;100.00;150158.72;4971794;28;20703;-57
2023/09/07 07:07:50;;;;;;;7.73;5.00;;;;;;;16.33;100.00;150173.72;4980816;28;20253;-57
2023/09/07 07:10:17;;;;;;;7.83;5.20;;;;;;;16.44;100.00;150199.94;4969766;28;20235;-55
2023/09/07 07:12:44;;;;;;;9.13;5.50;;;;;;;16.52;100.00;150219.94;4983857;28;20235;-57
2023/09/07 07:15:11;;;;;;;8.13;6.57;;;;;;;16.60;100.00;150238.72;4972494;28;20319;-57
2023/09/07 07:17:38;;;;;;;9.17;6.03;;;;;;;16.73;100.00;150269.97;4975803;28;20261;-56
2023/09/07 07:20:07;;;;;;;7.50;5.50;;;;;;;16.85;100.00;150298.75;4969889;28;20237;-56
2023/09/07 07:22:35;;;;;;;7.20;5.03;;;;;;;17.00;100.00;150335.03;4970778;28;20412;-58
2023/09/07 07:25:05;;;;;;;7.10;4.80;;;;;;;17.14;99.71;150367.56;4976946;28;20322;-55
2023/09/07 07:27:32;;;;;;;5.67;4.80;;;;;;;17.30;99.59;150406.31;4960616;28;20321;-57
2023/09/07 07:29:59;;;;;;;7.53;4.20;;;;;;;17.43;99.55;150437.59;4975453;28;20238;-57
2023/09/07 07:32:26;;;;;;;6.90;5.13;;;;;;;17.60;97.81;150478.84;4989730;28;20268;-57
2023/09/07 07:34:52;;;;;;;6.00;4.60;;;;;;;17.76;96.53;150518.88;4972343;28;20223;-57
2023/09/07 07:37:19;;;;;;;9.13;4.63;;;;;;;17.88;89.75;150547.66;4973680;28;20233;-57
2023/09/07 07:39:46;;;;;;;8.20;4.90;;;;;;;17.97;90.76;150568.94;4973237;28;20225;-57
2023/09/07 07:42:15;;;;;;;6.83;4.53;;;;;;;18.08;89.56;150596.47;4973839;28;20246;-57
2023/09/07 07:44:43;;;;;;;7.83;4.57;;;;;;;18.20;87.02;150624.00;4967405;28;20232;-57
2023/09/07 07:47:09;;;;;;;6.57;5.10;;;;;;;18.21;88.34;150626.50;4975366;28;20225;-57
2023/09/07 07:49:36;;;;;;;7.67;4.87;;;;;;;18.26;90.92;150639.00;4977407;28;20241;-57
2023/09/07 07:52:04;;;;;;;8.77;4.43;;;;;;;18.37;88.09;150666.56;4974642;28;20626;-57
2023/09/07 07:54:30;;;;;;;9.33;4.57;;;;;;;18.50;88.39;150696.59;4988820;28;20304;-57
2023/09/07 07:57:00;;;;;;;6.20;4.93;;;;;;;18.65;89.54;150734.13;4971243;28;21142;-56
2023/09/07 07:59:28;;;;;;;8.20;4.13;;;;;;;18.73;86.03;150752.91;4960094;28;20225;-57
2023/09/07 08:01:55;;;;;;;4.67;4.17;;;;;;;18.85;85.37;150781.72;4961139;28;20230;-57
2023/09/07 08:04:22;;;;;;;7.17;4.60;;;;;;;18.87;86.21;150787.94;4991005;28;20229;-57
2023/09/07 08:06:49;;;;;;;5.97;4.30;;;;;;;19.01;85.24;150820.53;4982801;28;20254;-57
2023/09/07 08:09:16;;;;;;;5.00;4.13;;;;;;;19.09;83.84;150839.31;4957021;28;20233;-57
2023/09/07 08:11:43;;;;;;;10.33;4.80;;;;;;;19.21;79.09;150868.13;4967200;28;20230;-57
2023/09/07 08:14:11;;;;;;;6.73;4.10;;;;;;;19.20;82.28;150865.63;4971548;28;20263;-57
2023/09/07 08:16:39;;;;;;;8.47;4.27;;;;;;;19.31;81.63;150893.16;4974623;28;20252;-57
2023/09/07 08:19:08;;;;;;;8.33;4.40;;;;;;;19.39;81.38;150911.94;4982519;28;20594;-57
2023/09/07 08:21:35;;;;;;;5.83;4.07;;;;;;;19.50;80.65;150938.25;4986694;28;20235;-57
2023/09/07 08:24:07;;;;;;;6.63;4.43;;;;;;;19.54;81.15;150948.28;4965187;28;20228;-57
2023/09/07 08:26:33;;;;;;;8.30;5.47;;;;;;;19.69;77.88;150984.56;4976392;28;20230;-57
2023/09/07 08:29:05;;;;;;;6.90;5.00;;;;;;;19.86;78.57;151025.88;4980729;28;20231;-57
2023/09/07 08:31:33;;;;;;;6.53;4.80;;;;;;;19.86;77.39;151027.16;4987969;28;20321;-57
2023/09/07 08:34:09;;;;;;;7.73;4.73;;;;;;;19.99;77.25;151058.50;4989097;28;20323;-58
2023/09/07 08:36:36;;;;;;;6.20;5.10;;;;;;;20.06;77.43;151074.81;4979082;28;20232;-57
2023/09/07 08:39:10;;;;;;;7.33;5.17;;;;;;;20.18;75.84;151104.84;4991534;28;20714;-57
2023/09/07 08:41:41;;;;;;;9.23;5.30;;;;;;;20.25;76.76;151121.16;4990108;28;20259;-58
2023/09/07 08:44:09;;;;;;;7.83;5.10;;;;;;;20.33;76.91;151141.19;4984744;28;20231;-57
2023/09/07 08:46:37;;;;;;;7.00;5.47;;;;;;;20.35;75.76;151146.19;4984975;28;20635;-58
2023/09/07 08:49:09;;;;;;;8.23;5.03;;;;;;;20.36;76.36;151147.44;4984763;28;20263;-57
2023/09/07 08:51:37;;;;;;;7.13;5.30;;;;;;;20.38;77.53;151152.44;4975793;28;20240;-57
2023/09/07 08:54:08;;;;;;;9.90;5.37;;;;;;;20.49;77.70;151180.00;4983546;28;20700;-56
2023/09/07 08:56:35;;;;;;;8.37;5.50;;;;;;;20.48;78.98;151176.28;4966566;28;20241;-56
2023/09/07 08:59:06;;;;;;;5.30;4.50;;;;;;;20.52;77.42;151186.31;4979761;28;20257;-57
2023/09/07 09:01:33;;;;;;;9.10;4.90;;;;;;;20.62;76.75;151210.09;4988252;28;20232;-57
2023/09/07 09:04:00;;;;;;;5.67;4.90;;;;;;;20.68;76.10;151223.84;4981993;28;20272;-57
2023/09/07 09:06:28;;;;;;;9.07;6.23;;;;;;;20.50;76.18;151181.28;4987181;28;20327;-55
2023/09/07 09:08:57;;;;;;;10.13;6.30;;;;;;;20.69;76.79;151226.34;4982590;28;20231;-57
2023/09/07 09:11:25;;;;;;;6.93;5.80;;;;;;;20.83;76.10;151261.50;4990311;28;20238;-57
2023/09/07 09:13:54;;;;;;;8.70;5.27;;;;;;;20.85;75.23;151265.28;4985382;28;20238;-57
2023/09/07 09:16:21;;;;;;;7.90;4.60;;;;;;;20.89;75.18;151275.31;4988422;28;20583;-58
2023/09/07 09:18:52;;;;;;;9.20;5.53;;;;;;;20.99;75.48;151300.38;4988314;28;20751;-57
2023/09/07 09:21:19;;;;;;;7.20;5.00;;;;;;;21.08;74.00;151321.66;4990788;28;20238;-57
2023/09/07 09:23:49;;;;;;;5.97;4.73;;;;;;;21.15;72.06;151339.22;4983781;28;20287;-57
2023/09/07 09:26:16;;;;;;;8.03;5.80;;;;;;;21.18;72.20;151346.72;4987739;28;20288;-58
2023/09/07 09:28:44;;;;;;;7.87;5.60;;;;;;;21.28;73.78;151370.53;4982723;28;20234;-57
2023/09/07 09:31:12;;;;;;;8.50;5.20;;;;;;;21.40;74.16;151399.38;4985944;28;20245;-57
2023/09/07 09:33:39;;;;;;;7.47;5.50;;;;;;;21.53;73.14;151431.97;4984381;28;20334;-57
2023/09/07 09:36:07;;;;;;;13.83;6.27;;;;;;;21.58;72.95;151443.25;4985078;28;20623;-58
2023/09/07 09:38:34;;;;;;;10.47;5.83;;;;;;;21.62;73.82;151452.03;4986981;28;20232;-57
2023/09/07 09:41:03;;;;;;;8.20;5.30;;;;;;;21.70;73.24;151472.16;4982310;28;20241;-58
2023/09/07 09:43:30;;;;;;;7.63;6.00;;;;;;;21.73;72.81;151479.63;4983070;28;20237;-58
2023/09/07 09:45:58;;;;;;;7.97;5.47;;;;;;;21.79;72.11;151494.69;4979290;28;20236;-57
2023/09/07 09:48:24;;;;;;;11.67;5.83;;;;;;;21.82;71.57;151500.97;4985056;28;20675;-57
2023/09/07 09:50:51;;;;;;;6.17;5.17;;;;;;;21.91;70.23;151523.53;4988542;28;20217;-56
2023/09/07 09:53:20;;;;;;;5.70;4.83;;;;;;;21.95;70.50;151533.56;4969612;28;20230;-58
2023/09/07 09:55:47;;;;;;;6.07;5.00;;;;;;;22.05;68.98;151556.16;4988849;28;20661;-58
2023/09/07 09:58:15;;;;;;;6.97;4.93;;;;;;;22.07;70.34;151562.41;4984614;28;20245;-56
2023/09/07 10:00:43;;;;;;;7.03;4.73;;;;;;;22.22;66.82;151598.78;4985504;28;20229;-57
2023/09/07 10:03:14;;;;;;;9.00;4.87;;;;;;;22.14;66.80;151578.72;4987667;28;20231;-55
2023/09/07 10:05:41;;;;;;;7.23;4.90;;;;;;;22.12;65.55;151573.72;4987134;28;20692;-57
2023/09/07 10:08:13;;;;;;;8.73;4.50;;;;;;;22.23;66.22;151601.31;4982829;28;20231;-58
2023/09/07 10:10:41;;;;;;;4.80;4.10;;;;;;;22.32;64.12;151621.31;4990971;28;20238;-57
2023/09/07 10:13:08;;;;;;;8.03;4.10;;;;;;;22.36;65.15;151632.63;4962890;28;20238;-58
2023/09/07 10:15:38;;;;;;;6.60;4.67;;;;;;;22.35;66.37;151628.84;4981969;28;20247;-57
2023/09/07 10:18:10;;;;;;;5.43;4.23;;;;;;;22.42;65.63;151646.41;4983384;28;20692;-59
2023/09/07 10:20:55;;;;;;;5.93;4.40;;;;;;;22.50;65.05;151666.53;4984611;28;20235;-58
2023/09/07 10:23:23;;;;;;;4.83;4.23;;;;;;;22.66;66.51;151705.44;4981137;28;21138;-59
2023/09/07 10:25:51;;;;;;;6.37;4.10;;;;;;;22.76;64.83;151729.25;4981682;28;20230;-59
2023/09/07 10:28:22;;;;;;;5.37;4.20;;;;;;;22.70;65.46;151715.47;4988515;28;20235;-59
2023/09/07 10:31:04;;;;;;;5.03;4.23;;;;;;;22.86;66.47;151753.06;4959002;28;20251;-59
2023/09/07 10:33:32;;;;;;;7.73;4.20;;;;;;;22.94;66.90;151771.91;4975499;28;20587;-59
2023/09/07 10:35:59;;;;;;;7.23;4.03;;;;;;;23.06;65.45;151800.75;4977793;28;20718;-59
2023/09/07 10:38:26;;;;;;;5.00;3.90;;;;;;;23.12;66.64;151815.81;4983077;28;20229;-59
2023/09/07 10:40:58;;;;;;;5.67;3.80;;;;;;;23.06;64.58;151802.03;4981708;28;20227;-58
2023/09/07 10:43:25;;;;;;;6.17;4.10;;;;;;;23.10;64.04;151812.06;4985399;28;20278;-57
2023/09/07 10:45:52;;;;;;;7.07;4.20;;;;;;;23.10;65.41;151810.78;4983519;28;20220;-55
2023/09/07 10:48:19;;;;;;;6.30;4.27;;;;;;;23.13;65.58;151818.31;4981513;28;20581;-56
2023/09/07 10:50:47;;;;;;;8.87;4.27;;;;;;;23.19;65.77;151833.38;4983610;28;20225;-58
2023/09/07 10:53:15;;;;;;;4.57;4.03;;;;;;;23.34;66.09;151869.78;4981750;28;20235;-58
2023/09/07 10:55:43;;;;;;;8.07;4.70;;;;;;;23.35;66.33;151872.31;4982450;28;20230;-58
2023/09/07 10:58:10;;;;;;;5.93;3.90;;;;;;;23.48;66.35;151903.69;4981557;28;20592;-57
2023/09/07 11:00:37;;;;;;;6.53;4.20;;;;;;;23.55;64.10;151920.00;4981209;28;20223;-57
2023/09/07 11:03:10;;;;;;;4.90;3.80;;;;;;;23.67;63.21;151950.13;4980188;28;20242;-58
2023/09/07 11:05:40;;;;;;;4.33;3.80;;;;;;;23.73;63.15;151963.97;4979049;28;20230;-55
2023/09/07 11:08:08;;;;;;;4.37;3.83;;;;;;;23.82;62.24;151985.28;4977484;28;20228;-57
2023/09/07 11:10:35;;;;;;;4.37;3.90;;;;;;;23.82;61.41;151986.56;4983631;28;20237;-58
2023/09/07 11:13:05;;;;;;;5.17;3.93;;;;;;;23.85;62.77;151994.03;4981948;28;20251;-58
2023/09/07 11:15:33;;;;;;;7.17;4.30;;;;;;;23.88;62.22;152001.56;4971557;28;20231;-58
2023/09/07 11:18:05;;;;;;;4.90;4.07;;;;;;;23.96;61.57;152019.13;4981184;28;20232;-58
2023/09/07 11:20:31;;;;;;;5.00;4.20;;;;;;;23.95;62.96;152016.63;4986519;28;20785;-58
2023/09/07 11:23:00;;;;;;;6.57;4.30;;;;;;;23.92;63.15;152010.38;4985927;28;20243;-58
2023/09/07 11:25:26;;;;;;;6.10;4.30;;;;;;;24.14;63.31;152063.16;4988566;28;20228;-58
2023/09/07 11:27:54;;;;;;;7.63;4.40;;;;;;;24.14;64.31;152063.16;4984140;28;20570;-57